createdAt,value
2023-04-13T00:04:55.061Z,26.08
2023-04-13T00:14:57.039Z,25.58
2023-04-13T00:25:00.030Z,26.25
2023-04-13T00:35:02.204Z,25.88
2023-04-13T00:45:04.401Z,26.27
2023-04-13T00:55:07.542Z,25.48
2023-04-13T01:05:12.783Z,24.35
2023-04-13T01:15:18.025Z,24.20
2023-04-13T01:25:51.829Z,25.27
2023-04-13T01:35:54.764Z,26.00
2023-04-13T01:46:14.287Z,29.42
2023-04-13T01:56:23.343Z,29.17
2023-04-13T02:06:26.208Z,36.63
2023-04-13T02:16:28.604Z,36.08
2023-04-13T02:26:30.500Z,40.72
2023-04-13T02:36:33.117Z,38.05
2023-04-13T02:46:35.113Z,34.10
2023-04-13T02:57:05.932Z,30.85
2023-04-13T03:07:10.615Z,30.65
2023-04-13T03:17:12.811Z,30.58
2023-04-13T03:27:14.855Z,28.85
2023-04-13T03:37:16.749Z,29.23
2023-04-13T03:47:18.786Z,30.25
2023-04-13T03:57:22.828Z,28.02
2023-04-13T04:07:24.936Z,25.88
2023-04-13T04:17:26.974Z,25.48
2023-04-13T04:27:29.522Z,25.83
2023-04-13T04:37:37.687Z,25.90
2023-04-13T04:47:43.874Z,25.75
2023-04-13T04:57:47.242Z,26.70
2023-04-13T05:07:49.131Z,27.90
2023-04-13T05:17:56.789Z,32.20
2023-04-13T05:27:59.847Z,29.35
2023-04-13T05:38:04.757Z,30.98
2023-04-13T05:48:07.820Z,25.55
2023-04-13T05:58:35.117Z,24.67
2023-04-13T06:08:37.147Z,22.17
2023-04-13T06:18:57.424Z,20.58
2023-04-13T06:29:00.296Z,22.08
2023-04-13T06:39:16.534Z,17.48
2023-04-13T06:49:25.406Z,14.18
2023-04-13T06:59:41.487Z,15.13
2023-04-13T07:09:43.463Z,17.27
2023-04-13T07:19:48.060Z,13.38
2023-04-13T07:29:53.678Z,12.77
2023-04-13T07:39:57.713Z,11.27
2023-04-13T07:49:59.930Z,10.10
2023-04-13T08:00:02.246Z,12.25
2023-04-13T08:10:04.756Z,11.07
2023-04-13T08:20:08.481Z,9.02
2023-04-13T08:30:11.902Z,8.38
2023-04-13T08:40:13.945Z,7.03
2023-04-13T08:50:19.343Z,9.05
2023-04-13T09:00:22.218Z,8.43
2023-04-13T09:10:26.883Z,7.85
2023-04-13T09:20:30.178Z,8.60
2023-04-13T09:30:32.158Z,9.07
2023-04-13T09:40:38.489Z,7.22
2023-04-13T09:50:59.611Z,6.45
2023-04-13T10:01:01.715Z,6.18
2023-04-13T10:11:04.641Z,6.68
2023-04-13T10:21:07.494Z,4.85
2023-04-13T10:31:10.817Z,4.82
2023-04-13T10:41:33.060Z,5.03
2023-04-13T10:51:44.443Z,4.55
2023-04-13T11:01:50.300Z,3.40
2023-04-13T11:11:52.570Z,4.00
2023-04-13T11:21:58.280Z,4.30
2023-04-13T11:32:00.327Z,4.20
2023-04-13T11:42:07.243Z,4.43
2023-04-13T12:02:21.932Z,4.93
2023-04-13T12:23:05.760Z,4.22
2023-04-13T12:33:17.152Z,3.65
2023-04-13T12:43:40.976Z,3.40
2023-04-13T12:53:42.988Z,3.10
2023-04-13T13:03:46.262Z,4.07
2023-04-13T13:13:53.553Z,3.30
2023-04-13T13:23:56.534Z,3.45
2023-04-13T13:34:00.525Z,3.38
2023-04-13T13:44:02.482Z,3.17
2023-04-13T13:54:04.557Z,3.45
2023-04-13T14:04:07.607Z,2.22
2023-04-13T14:14:20.977Z,3.80
2023-04-13T14:24:26.704Z,2.55
2023-04-13T14:34:29.148Z,2.47
2023-04-13T14:44:37.373Z,2.03
2023-04-13T14:54:40.649Z,2.80
2023-04-13T15:04:45.742Z,3.83
2023-04-13T15:14:47.988Z,2.78
2023-04-13T15:25:04.494Z,2.55
2023-04-13T15:36:03.976Z,2.35
2023-04-13T15:46:23.409Z,2.80
2023-04-13T15:56:36.879Z,2.70
2023-04-13T16:06:55.814Z,2.47
2023-04-13T16:17:08.147Z,4.18
2023-04-13T16:27:10.673Z,2.95
2023-04-13T16:37:12.774Z,4.00
2023-04-13T16:47:14.894Z,4.22
2023-04-13T16:57:17.923Z,2.97
2023-04-13T17:07:23.967Z,4.22
2023-04-13T17:17:26.442Z,4.85
2023-04-13T17:27:28.782Z,9.30
2023-04-13T17:37:30.672Z,5.05
2023-04-13T17:47:39.227Z,12.95
2023-04-13T17:57:46.017Z,8.75
2023-04-13T18:07:50.740Z,9.52
2023-04-13T18:17:53.198Z,14.98
2023-04-13T18:27:57.383Z,11.65
2023-04-13T18:38:01.315Z,10.40
2023-04-13T18:48:13.050Z,14.73
2023-04-13T18:58:15.763Z,10.65
2023-04-13T19:08:18.574Z,15.02
2023-04-13T19:18:23.336Z,13.55
2023-04-13T19:28:29.986Z,14.80
2023-04-13T19:38:33.241Z,15.95
2023-04-13T19:48:35.956Z,20.42
2023-04-13T19:58:39.485Z,17.65
2023-04-13T20:08:45.833Z,17.08
2023-04-13T20:18:51.781Z,15.70
2023-04-13T20:29:00.836Z,14.52
2023-04-13T20:39:24.676Z,16.40
2023-04-13T20:49:28.553Z,15.45
2023-04-13T20:59:34.408Z,14.60
2023-04-13T21:09:36.569Z,14.43
2023-04-13T21:19:38.555Z,13.00
2023-04-13T21:29:40.575Z,14.50
2023-04-13T21:39:43.455Z,13.95
2023-04-13T21:49:45.375Z,11.45
2023-04-13T21:59:47.382Z,13.45
2023-04-13T22:09:58.230Z,12.35
2023-04-13T22:20:00.235Z,11.15
2023-04-13T22:30:02.265Z,10.35
2023-04-13T22:40:07.867Z,10.68
2023-04-13T22:50:09.952Z,10.40
2023-04-13T23:00:12.613Z,9.82
2023-04-13T23:10:17.162Z,8.95
2023-04-13T23:20:21.686Z,9.00
2023-04-13T23:30:23.843Z,7.78
2023-04-13T23:40:25.768Z,7.93
2023-04-13T23:50:27.736Z,8.40
